createdAt,value
2022-09-12T00:00:31.790Z,46.82
2022-09-12T00:02:55.167Z,46.75
2022-09-12T00:05:18.403Z,47.00
2022-09-12T00:07:41.673Z,47.19
2022-09-12T00:10:07.646Z,47.69
2022-09-12T00:12:30.806Z,48.21
2022-09-12T00:14:53.961Z,48.54
2022-09-12T00:17:17.155Z,48.63
2022-09-12T00:19:40.297Z,49.05
2022-09-12T00:22:03.528Z,48.52
2022-09-12T00:24:26.717Z,48.20
2022-09-12T00:26:51.310Z,48.85
2022-09-12T00:29:15.988Z,49.80
2022-09-12T00:31:39.575Z,50.20
2022-09-12T00:34:03.121Z,50.94
2022-09-12T00:36:26.505Z,52.28
2022-09-12T00:38:49.752Z,53.00
2022-09-12T00:41:15.194Z,53.21
2022-09-12T00:43:40.668Z,53.75
2022-09-12T00:46:05.006Z,54.23
2022-09-12T00:48:29.705Z,54.47
2022-09-12T00:50:52.867Z,54.26
2022-09-12T00:53:16.021Z,55.35
2022-09-12T00:55:40.235Z,56.52
2022-09-12T00:58:04.961Z,56.09
2022-09-12T01:00:29.968Z,56.82
2022-09-12T01:02:54.743Z,57.49
2022-09-12T01:05:18.061Z,57.60
2022-09-12T01:07:41.278Z,57.73
2022-09-12T01:10:05.518Z,58.39
2022-09-12T01:12:28.699Z,58.88
2022-09-12T01:14:51.925Z,59.75
2022-09-12T01:17:16.890Z,59.54
2022-09-12T01:20:16.481Z,60.15
2022-09-12T01:22:55.180Z,59.85
2022-09-12T01:25:21.454Z,59.53
2022-09-12T01:27:52.079Z,59.86
2022-09-12T01:30:27.809Z,60.51
2022-09-12T01:33:09.709Z,61.21
2022-09-12T01:35:34.150Z,61.03
2022-09-12T01:38:00.810Z,61.37
2022-09-12T01:40:25.361Z,60.14
2022-09-12T01:42:52.187Z,60.47
2022-09-12T01:45:17.986Z,60.94
2022-09-12T01:47:43.051Z,60.92
2022-09-12T01:50:08.074Z,60.80
2022-09-12T01:52:33.465Z,61.30
2022-09-12T01:54:58.727Z,61.53
2022-09-12T01:57:25.070Z,61.58
2022-09-12T01:59:49.472Z,61.39
2022-09-12T02:02:13.687Z,60.97
2022-09-12T02:04:40.109Z,61.02
2022-09-12T02:07:05.059Z,60.84
2022-09-12T02:09:30.518Z,61.28
2022-09-12T02:11:55.611Z,61.59
2022-09-12T02:14:20.402Z,61.56
2022-09-12T02:16:44.364Z,61.80
2022-09-12T02:19:09.990Z,62.25
2022-09-12T02:21:34.513Z,62.58
2022-09-12T02:23:58.449Z,62.14
2022-09-12T02:26:22.677Z,62.76
2022-09-12T02:28:48.905Z,62.79
2022-09-12T02:31:15.427Z,62.44
2022-09-12T02:33:40.372Z,62.28
2022-09-12T02:36:07.127Z,63.44
2022-09-12T02:38:34.374Z,63.16
2022-09-12T02:40:57.551Z,63.54
2022-09-12T02:43:20.794Z,63.52
2022-09-12T02:45:43.965Z,64.08
2022-09-12T02:48:08.794Z,64.44
2022-09-12T02:50:31.933Z,64.29
2022-09-12T02:52:59.732Z,63.96
2022-09-12T02:55:24.790Z,64.89
2022-09-12T02:57:48.024Z,64.82
2022-09-12T03:00:12.176Z,64.93
2022-09-12T03:02:43.633Z,64.94
2022-09-12T03:05:15.127Z,64.73
2022-09-12T03:07:47.554Z,64.64
2022-09-12T03:10:13.561Z,64.38
2022-09-12T03:12:44.197Z,64.40
2022-09-12T03:15:19.950Z,64.86
2022-09-12T03:17:53.352Z,64.57
2022-09-12T03:20:18.021Z,64.96
2022-09-12T03:22:47.084Z,64.72
2022-09-12T03:25:14.775Z,65.38
2022-09-12T03:27:38.593Z,65.08
2022-09-12T03:30:03.222Z,65.24
2022-09-12T03:32:40.773Z,64.56
2022-09-12T03:35:04.187Z,64.64
2022-09-12T03:37:27.343Z,64.41
2022-09-12T03:39:50.533Z,64.15
2022-09-12T03:42:13.722Z,63.76
2022-09-12T03:44:36.985Z,63.94
2022-09-12T03:47:01.564Z,63.65
2022-09-12T03:49:25.030Z,63.71
2022-09-12T03:51:48.199Z,63.35
2022-09-12T03:54:11.489Z,63.80
2022-09-12T03:56:34.650Z,63.99
2022-09-12T03:58:57.953Z,63.66
2022-09-12T04:01:21.209Z,63.82
2022-09-12T04:03:46.624Z,63.42
2022-09-12T04:06:10.198Z,63.31
2022-09-12T04:08:33.415Z,63.08
2022-09-12T04:10:56.797Z,62.30
2022-09-12T04:13:20.053Z,62.35
2022-09-12T04:15:43.194Z,61.99
2022-09-12T04:18:06.671Z,61.49
2022-09-12T04:20:31.176Z,62.00
2022-09-12T04:22:54.202Z,61.66
2022-09-12T04:25:17.530Z,61.38
2022-09-12T04:27:40.818Z,61.37
2022-09-12T04:30:04.209Z,61.35
2022-09-12T04:32:27.441Z,61.50
2022-09-12T04:34:52.392Z,60.66
2022-09-12T04:37:17.011Z,60.43
2022-09-12T04:39:41.312Z,60.68
2022-09-12T04:42:04.898Z,60.55
2022-09-12T04:44:28.098Z,60.84
2022-09-12T04:46:51.242Z,60.73
2022-09-12T04:49:14.516Z,60.02
2022-09-12T04:51:38.607Z,59.67
2022-09-12T04:54:04.277Z,59.79
2022-09-12T04:56:27.565Z,60.66
2022-09-12T04:58:50.811Z,60.41
2022-09-12T05:01:15.328Z,60.26
2022-09-12T05:03:39.105Z,61.22
2022-09-12T05:06:03.618Z,61.18
2022-09-12T05:08:26.951Z,61.08
2022-09-12T05:10:51.489Z,61.05
2022-09-12T05:13:14.710Z,60.90
2022-09-12T05:15:37.858Z,61.12
2022-09-12T05:18:01.139Z,61.73
2022-09-12T05:20:24.263Z,61.45
2022-09-12T05:22:47.519Z,61.76
2022-09-12T05:25:11.149Z,61.32
2022-09-12T05:27:35.718Z,60.95
2022-09-12T05:29:59.149Z,60.98
2022-09-12T05:32:22.374Z,60.64
2022-09-12T05:34:45.526Z,60.35
2022-09-12T05:37:08.978Z,60.28
2022-09-12T05:39:32.155Z,59.30
2022-09-12T05:41:56.488Z,59.26
2022-09-12T05:44:21.106Z,59.26
2022-09-12T05:46:46.682Z,59.23
2022-09-12T05:49:11.559Z,59.26
2022-09-12T05:51:35.590Z,58.95
2022-09-12T05:54:00.532Z,58.62
2022-09-12T05:56:25.302Z,58.52
2022-09-12T05:58:49.493Z,58.23
2022-09-12T06:01:14.952Z,58.06
2022-09-12T06:03:40.832Z,58.07
2022-09-12T06:06:05.169Z,57.94
2022-09-12T06:08:28.162Z,58.60
2022-09-12T06:10:51.298Z,58.74
2022-09-12T06:13:14.448Z,58.65
2022-09-12T06:15:37.699Z,58.36
2022-09-12T06:18:02.282Z,58.22
2022-09-12T06:20:25.197Z,57.67
2022-09-12T06:22:48.451Z,57.48
2022-09-12T06:25:11.614Z,57.93
2022-09-12T06:27:34.754Z,57.90
2022-09-12T06:29:57.945Z,58.11
2022-09-12T06:32:21.262Z,57.67
2022-09-12T06:34:47.735Z,57.58
2022-09-12T06:37:11.317Z,57.43
2022-09-12T06:39:36.626Z,57.23
2022-09-12T06:41:59.778Z,57.11
2022-09-12T06:44:32.440Z,57.00
2022-09-12T06:46:55.610Z,56.22
2022-09-12T06:49:18.858Z,56.69
2022-09-12T06:51:43.413Z,56.63
2022-09-12T06:54:06.732Z,56.48
2022-09-12T06:56:29.882Z,56.12
2022-09-12T06:58:53.642Z,55.71
2022-09-12T07:01:17.808Z,55.78
2022-09-12T07:03:41.458Z,55.47
2022-09-12T07:06:05.788Z,55.32
2022-09-12T07:08:31.873Z,55.23
2022-09-12T07:10:55.061Z,55.25
2022-09-12T07:13:18.242Z,55.23
2022-09-12T07:15:41.438Z,54.80
2022-09-12T07:18:04.765Z,54.99
2022-09-12T07:20:27.903Z,54.98
2022-09-12T07:22:52.186Z,55.06
2022-09-12T07:25:16.883Z,54.97
2022-09-12T07:27:40.085Z,54.60
2022-09-12T07:30:03.285Z,54.13
2022-09-12T07:32:26.550Z,53.88
2022-09-12T07:34:50.020Z,53.86
2022-09-12T07:37:13.241Z,53.78
2022-09-12T07:39:36.406Z,53.70
2022-09-12T07:42:01.562Z,53.81
2022-09-12T07:44:27.033Z,53.67
2022-09-12T07:46:50.777Z,53.70
2022-09-12T07:49:14.282Z,53.50
2022-09-12T07:51:37.435Z,53.57
2022-09-12T07:54:00.631Z,53.45
2022-09-12T07:56:29.455Z,52.85
2022-09-12T07:58:56.032Z,52.88
2022-09-12T08:01:19.976Z,52.61
2022-09-12T08:03:43.533Z,52.01
2022-09-12T08:06:07.340Z,51.72
2022-09-12T08:08:30.582Z,51.64
2022-09-12T08:10:58.434Z,52.08
2022-09-12T08:13:21.688Z,52.21
2022-09-12T08:15:46.295Z,52.33
2022-09-12T08:18:09.568Z,51.93
2022-09-12T08:20:33.006Z,51.60
2022-09-12T08:22:56.538Z,51.35
2022-09-12T08:25:19.692Z,49.52
2022-09-12T08:27:43.585Z,50.03
2022-09-12T08:30:07.690Z,48.85
2022-09-12T08:32:32.171Z,49.29
2022-09-12T08:34:55.120Z,49.24
2022-09-12T08:37:18.353Z,48.63
2022-09-12T08:39:42.033Z,48.58
2022-09-12T08:42:06.246Z,48.87
2022-09-12T08:44:56.581Z,48.85
2022-09-12T08:47:23.138Z,48.54
2022-09-12T08:49:51.609Z,48.42
2022-09-12T08:52:18.084Z,48.08
2022-09-12T08:54:41.247Z,47.98
2022-09-12T08:57:05.016Z,47.46
2022-09-12T08:59:28.289Z,47.33
2022-09-12T09:01:53.886Z,47.76
2022-09-12T09:04:29.489Z,47.64
2022-09-12T09:07:20.591Z,47.50
2022-09-12T09:09:54.825Z,47.95
2022-09-12T09:12:20.882Z,47.75
2022-09-12T09:14:55.437Z,48.16
2022-09-12T09:17:25.262Z,48.35
2022-09-12T09:19:51.149Z,47.30
2022-09-12T09:22:15.504Z,47.63
2022-09-12T09:24:41.322Z,47.57
2022-09-12T09:27:23.570Z,47.23
2022-09-12T09:29:52.313Z,47.74
2022-09-12T09:32:18.370Z,47.77
2022-09-12T09:34:41.803Z,47.09
2022-09-12T09:37:09.624Z,47.58
2022-09-12T09:39:42.503Z,47.89
2022-09-12T09:42:18.074Z,47.62
2022-09-12T09:44:41.314Z,46.93
2022-09-12T09:47:05.346Z,46.98
2022-09-12T09:49:29.325Z,46.41
2022-09-12T09:51:52.488Z,46.22
2022-09-12T09:54:19.970Z,46.67
2022-09-12T09:56:44.503Z,46.71
2022-09-12T09:59:12.874Z,46.92
2022-09-12T10:01:36.114Z,46.22
2022-09-12T10:03:59.922Z,45.74
2022-09-12T10:06:28.065Z,44.99
2022-09-12T10:08:51.580Z,44.80
2022-09-12T10:11:19.750Z,45.14
2022-09-12T10:13:53.259Z,45.03
2022-09-12T10:16:20.566Z,44.42
2022-09-12T10:18:43.984Z,44.13
2022-09-12T10:21:18.943Z,44.50
2022-09-12T10:23:42.224Z,44.64
2022-09-12T10:26:06.593Z,43.74
2022-09-12T10:28:32.126Z,43.90
2022-09-12T10:30:56.842Z,43.08
2022-09-12T10:33:20.435Z,43.33
2022-09-12T10:35:44.976Z,43.23
2022-09-12T10:38:08.461Z,43.24
2022-09-12T10:40:32.813Z,43.20
2022-09-12T10:42:56.532Z,42.81
2022-09-12T10:45:24.783Z,43.65
2022-09-12T10:47:49.419Z,43.35
2022-09-12T10:50:22.812Z,43.45
2022-09-12T10:52:46.329Z,42.94
2022-09-12T10:55:14.708Z,43.30
2022-09-12T10:57:52.368Z,43.97
2022-09-12T11:00:17.553Z,44.21
2022-09-12T11:02:51.895Z,44.31
2022-09-12T11:05:20.652Z,44.30
2022-09-12T11:07:47.309Z,44.72
2022-09-12T11:10:35.630Z,45.20
2022-09-12T11:13:07.025Z,45.25
2022-09-12T11:15:42.712Z,44.93
2022-09-12T11:18:12.203Z,44.95
2022-09-12T11:20:41.800Z,45.07
2022-09-12T11:23:41.973Z,45.76
2022-09-12T11:26:08.532Z,45.76
2022-09-12T11:28:35.831Z,46.12
2022-09-12T11:31:08.150Z,46.09
2022-09-12T11:33:42.713Z,46.37
2022-09-12T11:36:06.427Z,46.78
2022-09-12T11:38:53.500Z,46.75
2022-09-12T11:41:18.391Z,47.08
2022-09-12T11:43:43.044Z,47.16
2022-09-12T11:46:10.761Z,47.26
2022-09-12T11:48:39.930Z,47.40
2022-09-12T11:51:04.653Z,47.33
2022-09-12T11:53:29.654Z,47.68
2022-09-12T11:55:56.099Z,47.09
2022-09-12T11:58:19.555Z,47.42
2022-09-12T12:00:44.198Z,47.08
2022-09-12T12:03:09.991Z,47.48
2022-09-12T12:05:37.247Z,47.44
2022-09-12T12:08:01.119Z,47.22
2022-09-12T12:10:31.067Z,47.57
2022-09-12T12:12:54.914Z,47.58
2022-09-12T12:15:18.256Z,47.67
2022-09-12T12:17:41.437Z,47.72
2022-09-12T12:20:08.586Z,47.41
2022-09-12T12:22:33.722Z,48.01
2022-09-12T12:25:02.777Z,47.68
2022-09-12T12:27:45.727Z,47.95
2022-09-12T12:30:34.173Z,47.61
2022-09-12T12:33:00.705Z,47.58
2022-09-12T12:35:39.669Z,48.03
2022-09-12T12:38:04.339Z,48.03
2022-09-12T12:40:29.022Z,47.37
2022-09-12T12:43:06.123Z,47.34
2022-09-12T12:45:48.795Z,47.69
2022-09-12T12:48:12.782Z,47.29
2022-09-12T12:50:36.251Z,47.38
2022-09-12T12:53:00.157Z,47.57
2022-09-12T12:55:26.383Z,47.47
2022-09-12T12:57:50.162Z,47.21
2022-09-12T13:00:29.929Z,47.47
2022-09-12T13:02:56.121Z,47.27
2022-09-12T13:05:21.343Z,47.52
2022-09-12T13:07:44.765Z,47.37
2022-09-12T13:10:08.666Z,47.43
2022-09-12T13:12:34.831Z,47.73
2022-09-12T13:14:58.500Z,47.47
2022-09-12T13:17:26.106Z,47.51
2022-09-12T13:19:49.787Z,47.77
2022-09-12T13:22:13.034Z,47.97
2022-09-12T13:24:36.745Z,47.54
2022-09-12T13:26:59.998Z,47.77
2022-09-12T13:29:25.420Z,48.24
2022-09-12T13:31:49.980Z,48.06
2022-09-12T13:34:12.962Z,48.20
2022-09-12T13:36:51.545Z,48.45
2022-09-12T13:39:16.922Z,48.51
2022-09-12T13:42:19.881Z,48.24
2022-09-12T13:44:45.607Z,48.15
2022-09-12T13:47:09.350Z,48.44
2022-09-12T13:49:34.324Z,47.93
2022-09-12T13:52:00.131Z,47.70
2022-09-12T13:54:24.646Z,48.03
2022-09-12T13:56:48.643Z,47.80
2022-09-12T13:59:12.452Z,48.00
2022-09-12T14:01:40.959Z,47.71
2022-09-12T14:04:26.856Z,47.92
2022-09-12T14:06:51.474Z,48.05
2022-09-12T14:09:15.000Z,48.28
2022-09-12T14:11:40.106Z,48.30
2022-09-12T14:14:03.635Z,48.18
2022-09-12T14:16:29.038Z,48.41
2022-09-12T14:18:54.365Z,48.90
2022-09-12T14:21:28.634Z,48.92
2022-09-12T14:23:51.844Z,48.95
2022-09-12T14:26:15.437Z,48.80
2022-09-12T14:28:40.907Z,48.71
2022-09-12T14:31:06.577Z,49.00
2022-09-12T14:33:30.093Z,48.71
2022-09-12T14:36:08.890Z,49.02
2022-09-12T14:38:35.312Z,49.23
2022-09-12T14:41:01.141Z,49.28
2022-09-12T14:43:26.401Z,49.31
2022-09-12T14:45:55.968Z,48.94
2022-09-12T14:48:19.470Z,48.97
2022-09-12T14:50:42.721Z,49.01
2022-09-12T14:53:08.159Z,49.12
2022-09-12T14:55:32.141Z,49.51
2022-09-12T14:58:08.404Z,49.24
2022-09-12T15:00:31.666Z,49.30
2022-09-12T15:02:54.854Z,49.39
2022-09-12T15:05:26.580Z,49.57
2022-09-12T15:07:54.809Z,49.89
2022-09-12T15:10:22.150Z,49.61
2022-09-12T15:12:45.440Z,50.20
2022-09-12T15:15:14.778Z,50.76
2022-09-12T15:17:38.041Z,50.10
2022-09-12T15:20:01.331Z,50.30
2022-09-12T15:22:25.366Z,50.72
2022-09-12T15:24:49.466Z,50.53
2022-09-12T15:27:14.153Z,51.15
2022-09-12T15:29:37.338Z,50.67
2022-09-12T15:32:00.595Z,50.82
2022-09-12T15:34:23.841Z,51.18
2022-09-12T15:36:47.062Z,51.20
2022-09-12T15:39:10.430Z,51.41
2022-09-12T15:41:35.622Z,51.56
2022-09-12T15:44:01.198Z,50.92
2022-09-12T15:46:24.400Z,51.00
2022-09-12T15:48:47.705Z,51.17
2022-09-12T15:51:15.449Z,51.44
2022-09-12T15:53:39.291Z,51.43
2022-09-12T15:56:02.737Z,51.03
2022-09-12T15:58:26.016Z,51.46
2022-09-12T16:00:50.629Z,51.63
2022-09-12T16:03:19.275Z,51.32
2022-09-12T16:05:42.718Z,51.57
2022-09-12T16:08:06.027Z,51.26
2022-09-12T16:10:31.190Z,51.43
2022-09-12T16:12:54.400Z,51.56
2022-09-12T16:15:19.763Z,51.68
2022-09-12T16:17:44.326Z,51.82
2022-09-12T16:20:08.863Z,52.03
2022-09-12T16:22:32.213Z,52.16
2022-09-12T16:24:55.444Z,52.11
2022-09-12T16:27:19.679Z,52.87
2022-09-12T16:29:42.994Z,52.66
2022-09-12T16:32:06.575Z,53.03
2022-09-12T16:34:31.169Z,52.68
2022-09-12T16:36:54.461Z,53.08
2022-09-12T16:39:17.775Z,53.20
2022-09-12T16:41:42.716Z,53.16
2022-09-12T16:44:05.935Z,53.15
2022-09-12T16:46:29.678Z,53.11
2022-09-12T16:48:53.993Z,53.36
2022-09-12T16:51:20.233Z,53.82
2022-09-12T16:53:43.511Z,53.39
2022-09-12T16:56:07.123Z,53.98
2022-09-12T16:58:33.223Z,53.70
2022-09-12T17:01:01.499Z,53.70
2022-09-12T17:03:24.867Z,55.00
2022-09-12T17:05:48.071Z,55.32
2022-09-12T17:08:12.712Z,55.94
2022-09-12T17:10:35.898Z,56.40
2022-09-12T17:12:59.309Z,56.81
2022-09-12T17:15:22.523Z,58.15
2022-09-12T17:17:47.133Z,58.70
2022-09-12T17:20:10.262Z,57.29
2022-09-12T17:22:34.871Z,57.45
2022-09-12T17:24:59.451Z,57.10
2022-09-12T17:27:22.678Z,57.57
2022-09-12T17:29:45.982Z,57.76
2022-09-12T17:32:09.289Z,57.49
2022-09-12T17:34:32.718Z,57.69
2022-09-12T17:36:55.994Z,57.70
2022-09-12T17:39:19.198Z,57.65
2022-09-12T17:41:44.020Z,57.52
2022-09-12T17:44:07.684Z,57.85
2022-09-12T17:46:33.041Z,57.48
2022-09-12T17:48:57.101Z,57.43
2022-09-12T17:51:20.331Z,57.40
2022-09-12T17:53:43.624Z,55.54
2022-09-12T17:56:07.245Z,54.41
2022-09-12T17:58:31.842Z,51.92
2022-09-12T18:01:24.386Z,52.80
2022-09-12T18:03:48.102Z,52.99
2022-09-12T18:06:11.469Z,52.54
2022-09-12T18:08:34.681Z,53.04
2022-09-12T18:11:04.849Z,53.14
2022-09-12T18:13:28.092Z,53.28
2022-09-12T18:15:52.699Z,53.30
2022-09-12T18:18:15.993Z,53.08
2022-09-12T18:20:39.351Z,53.22
2022-09-12T18:23:02.590Z,52.86
2022-09-12T18:25:26.038Z,52.83
2022-09-12T18:27:49.251Z,52.56
2022-09-12T18:30:22.168Z,52.57
2022-09-12T18:32:46.903Z,52.49
2022-09-12T18:35:10.515Z,52.11
2022-09-12T18:37:33.774Z,51.80
2022-09-12T18:39:57.946Z,52.01
2022-09-12T18:42:21.215Z,51.52
2022-09-12T18:44:44.487Z,51.29
2022-09-12T18:47:08.734Z,50.37
2022-09-12T18:49:33.443Z,49.88
2022-09-12T18:51:57.099Z,48.76
2022-09-12T18:54:20.667Z,48.95
2022-09-12T18:56:45.661Z,48.37
2022-09-12T18:59:08.930Z,48.73
2022-09-12T19:01:32.896Z,48.58
2022-09-12T19:03:56.394Z,48.34
2022-09-12T19:06:21.651Z,48.54
2022-09-12T19:08:45.032Z,48.35
2022-09-12T19:11:08.610Z,47.84
2022-09-12T19:13:31.914Z,47.71
2022-09-12T19:15:55.231Z,47.89
2022-09-12T19:18:18.572Z,47.28
2022-09-12T19:20:41.857Z,47.06
2022-09-12T19:23:06.536Z,46.74
2022-09-12T19:25:30.066Z,47.05
2022-09-12T19:27:53.292Z,47.04
2022-09-12T19:30:16.704Z,46.61
2022-09-12T19:32:40.055Z,46.47
2022-09-12T19:35:03.264Z,47.04
2022-09-12T19:37:26.562Z,46.69
2022-09-12T19:39:51.228Z,46.85
2022-09-12T19:42:14.524Z,46.49
2022-09-12T19:44:38.290Z,46.50
2022-09-12T19:47:01.644Z,46.54
2022-09-12T19:49:24.887Z,46.72
2022-09-12T19:51:48.166Z,47.14
2022-09-12T19:54:11.402Z,46.97
2022-09-12T19:56:36.008Z,47.01
2022-09-12T19:58:59.506Z,47.01
2022-09-12T20:01:24.909Z,46.66
2022-09-12T20:03:49.073Z,46.96
2022-09-12T20:06:13.164Z,46.60
2022-09-12T20:08:37.273Z,46.98
2022-09-12T20:11:00.482Z,46.91
2022-09-12T20:13:25.226Z,46.83
2022-09-12T20:15:48.458Z,46.94
2022-09-12T20:18:11.696Z,47.17
2022-09-12T20:20:34.900Z,46.59
2022-09-12T20:22:58.202Z,46.89
2022-09-12T20:25:21.409Z,47.21
2022-09-12T20:27:44.609Z,46.88
2022-09-12T20:30:10.862Z,46.41
2022-09-12T20:32:34.170Z,46.52
2022-09-12T20:34:57.386Z,46.44
2022-09-12T20:37:21.143Z,46.83
2022-09-12T20:39:47.829Z,46.68
2022-09-12T20:42:13.552Z,46.69
2022-09-12T20:44:36.778Z,47.11
2022-09-12T20:47:01.597Z,47.94
2022-09-12T20:49:24.848Z,47.90
2022-09-12T20:51:48.768Z,47.99
2022-09-12T20:54:11.961Z,47.86
2022-09-12T20:56:36.209Z,48.00
2022-09-12T20:58:59.690Z,48.15
2022-09-12T21:01:23.099Z,48.65
2022-09-12T21:03:47.870Z,48.42
2022-09-12T21:06:12.556Z,48.39
2022-09-12T21:08:35.643Z,48.15
2022-09-12T21:10:59.024Z,47.88
2022-09-12T21:13:22.210Z,47.92
2022-09-12T21:15:45.370Z,47.90
2022-09-12T21:18:08.661Z,48.07
2022-09-12T21:20:33.197Z,48.10
2022-09-12T21:22:56.476Z,48.12
2022-09-12T21:25:19.662Z,48.19
2022-09-12T21:27:42.842Z,48.32
2022-09-12T21:30:06.874Z,47.83
2022-09-12T21:32:34.631Z,47.95
2022-09-12T21:34:57.762Z,48.10
2022-09-12T21:37:22.322Z,48.16
2022-09-12T21:39:45.602Z,48.23
2022-09-12T21:42:08.917Z,48.21
2022-09-12T21:44:32.177Z,48.03
2022-09-12T21:46:55.326Z,48.18
2022-09-12T21:49:18.627Z,47.19
2022-09-12T21:51:41.898Z,46.85
2022-09-12T21:54:06.830Z,46.26
2022-09-12T21:56:30.115Z,45.74
2022-09-12T21:58:53.257Z,45.88
2022-09-12T22:01:16.457Z,45.91
2022-09-12T22:03:39.787Z,45.48
2022-09-12T22:06:04.021Z,45.57
2022-09-12T22:08:27.264Z,45.69
2022-09-12T22:10:51.800Z,46.23
2022-09-12T22:13:15.082Z,46.51
2022-09-12T22:15:41.096Z,46.55
2022-09-12T22:18:05.022Z,46.59
2022-09-12T22:20:28.171Z,46.58
2022-09-12T22:23:10.873Z,46.69
2022-09-12T22:25:34.059Z,46.87
2022-09-12T22:27:58.669Z,47.13
2022-09-12T22:30:22.221Z,47.15
2022-09-12T22:32:45.544Z,47.31
2022-09-12T22:35:09.264Z,47.43
2022-09-12T22:37:32.541Z,47.43
2022-09-12T22:39:55.951Z,47.38
2022-09-12T22:42:19.198Z,47.95
2022-09-12T22:44:43.719Z,48.15
2022-09-12T22:47:07.189Z,47.98
2022-09-12T22:49:31.005Z,47.58
2022-09-12T22:51:54.299Z,47.64
2022-09-12T22:54:17.461Z,47.69
2022-09-12T22:56:40.595Z,47.54
2022-09-12T22:59:03.789Z,47.90
2022-09-12T23:01:28.345Z,47.86
2022-09-12T23:03:51.449Z,48.00
2022-09-12T23:06:14.726Z,48.42
2022-09-12T23:08:38.086Z,48.57
2022-09-12T23:11:02.534Z,48.64
2022-09-12T23:13:25.457Z,49.31
2022-09-12T23:15:49.838Z,49.57
2022-09-12T23:18:14.270Z,49.92
2022-09-12T23:20:37.432Z,49.96
2022-09-12T23:23:00.595Z,49.83
2022-09-12T23:25:24.255Z,49.77
2022-09-12T23:27:48.461Z,49.95
2022-09-12T23:30:13.057Z,50.28
2022-09-12T23:32:36.602Z,50.51
2022-09-12T23:35:01.202Z,50.83
2022-09-12T23:37:24.153Z,50.52
2022-09-12T23:39:47.461Z,50.36
2022-09-12T23:42:10.602Z,50.61
2022-09-12T23:44:33.879Z,51.42
2022-09-12T23:46:57.002Z,51.11
2022-09-12T23:49:20.198Z,50.92
2022-09-12T23:51:44.860Z,51.28
2022-09-12T23:54:08.701Z,51.52
2022-09-12T23:56:31.881Z,51.88
2022-09-12T23:58:55.084Z,52.39
